createdAt,value
2022-10-10T00:00:12.451Z,9.57
2022-10-10T00:02:38.909Z,9.83
2022-10-10T00:05:05.727Z,9.77
2022-10-10T00:07:32.180Z,9.69
2022-10-10T00:09:58.701Z,9.68
2022-10-10T00:12:25.212Z,9.86
2022-10-10T00:14:51.757Z,9.65
2022-10-10T00:17:18.322Z,9.92
2022-10-10T00:19:44.785Z,9.83
2022-10-10T00:22:11.269Z,9.35
2022-10-10T00:24:37.743Z,9.78
2022-10-10T00:27:04.252Z,9.95
2022-10-10T00:29:30.759Z,9.90
2022-10-10T00:31:57.202Z,9.81
2022-10-10T00:34:23.664Z,9.58
2022-10-10T00:36:50.110Z,9.56
2022-10-10T00:39:16.657Z,9.73
2022-10-10T00:41:43.158Z,10.00
2022-10-10T00:44:13.231Z,9.65
2022-10-10T00:46:40.198Z,9.71
2022-10-10T00:49:21.004Z,9.57
2022-10-10T00:51:50.053Z,9.22
2022-10-10T00:54:20.266Z,9.39
2022-10-10T00:56:51.897Z,9.69
2022-10-10T00:59:19.454Z,9.72
2022-10-10T01:01:46.438Z,9.71
2022-10-10T01:04:31.867Z,10.11
2022-10-10T01:06:59.462Z,9.81
2022-10-10T01:09:27.802Z,9.56
2022-10-10T01:12:16.663Z,9.28
2022-10-10T01:15:15.660Z,9.27
2022-10-10T01:17:55.623Z,9.33
2022-10-10T01:20:34.182Z,9.41
2022-10-10T01:23:16.256Z,9.42
2022-10-10T01:25:48.854Z,9.26
2022-10-10T01:28:37.775Z,9.16
2022-10-10T01:31:08.467Z,9.11
2022-10-10T01:33:51.465Z,9.23
2022-10-10T01:36:51.277Z,9.00
2022-10-10T01:39:30.933Z,9.25
2022-10-10T01:42:09.294Z,9.50
2022-10-10T01:44:35.768Z,9.12
2022-10-10T01:47:02.220Z,8.98
2022-10-10T01:49:31.810Z,8.78
2022-10-10T01:52:28.695Z,9.03
2022-10-10T01:55:15.260Z,9.00
2022-10-10T01:57:57.038Z,8.89
2022-10-10T02:00:23.570Z,9.01
2022-10-10T02:03:31.084Z,9.01
2022-10-10T02:06:01.644Z,8.78
2022-10-10T02:08:33.897Z,8.88
2022-10-10T02:11:04.634Z,8.93
2022-10-10T02:13:48.834Z,9.07
2022-10-10T02:16:20.637Z,8.99
2022-10-10T02:18:49.502Z,8.67
2022-10-10T02:21:17.564Z,8.51
2022-10-10T02:23:47.385Z,8.51
2022-10-10T02:26:17.223Z,8.73
2022-10-10T02:28:49.497Z,8.68
2022-10-10T02:31:21.059Z,8.75
2022-10-10T02:33:51.879Z,8.76
2022-10-10T02:36:20.058Z,8.72
2022-10-10T02:38:48.081Z,8.75
2022-10-10T02:41:17.948Z,8.79
2022-10-10T02:43:45.051Z,8.84
2022-10-10T02:46:13.648Z,8.97
2022-10-10T02:48:40.599Z,9.03
2022-10-10T02:51:08.878Z,8.79
2022-10-10T02:53:37.103Z,8.88
2022-10-10T02:56:04.255Z,8.67
2022-10-10T02:58:31.016Z,8.59
2022-10-10T03:00:57.551Z,8.79
2022-10-10T03:03:25.552Z,8.64
2022-10-10T03:05:52.044Z,8.81
2022-10-10T03:08:18.720Z,8.67
2022-10-10T03:10:58.790Z,8.82
2022-10-10T03:13:25.811Z,8.53
2022-10-10T03:15:52.963Z,8.43
2022-10-10T03:18:20.032Z,8.65
2022-10-10T03:20:50.805Z,8.68
2022-10-10T03:23:17.332Z,8.72
2022-10-10T03:25:43.874Z,8.65
2022-10-10T03:28:11.555Z,8.48
2022-10-10T03:30:39.488Z,8.29
2022-10-10T03:33:06.746Z,8.46
2022-10-10T03:35:33.528Z,8.37
2022-10-10T03:38:00.144Z,8.29
2022-10-10T03:40:28.230Z,8.40
2022-10-10T03:42:54.770Z,8.41
2022-10-10T03:45:21.445Z,8.58
2022-10-10T03:47:48.166Z,8.40
2022-10-10T03:50:14.689Z,8.63
2022-10-10T03:52:41.146Z,8.44
2022-10-10T03:55:07.757Z,8.40
2022-10-10T03:57:34.863Z,8.21
2022-10-10T04:00:01.549Z,8.37
2022-10-10T04:02:28.097Z,8.35
2022-10-10T04:04:54.626Z,8.14
2022-10-10T04:07:21.111Z,7.87
2022-10-10T04:09:47.629Z,8.20
2022-10-10T04:12:14.152Z,8.16
2022-10-10T04:14:40.659Z,8.22
2022-10-10T04:17:07.334Z,8.16
2022-10-10T04:19:33.808Z,8.06
2022-10-10T04:22:00.378Z,8.12
2022-10-10T04:24:26.979Z,8.06
2022-10-10T04:26:53.571Z,8.15
2022-10-10T04:29:20.090Z,8.14
2022-10-10T04:31:46.659Z,7.90
2022-10-10T04:34:13.273Z,7.61
2022-10-10T04:36:39.772Z,7.99
2022-10-10T04:39:06.472Z,8.22
2022-10-10T04:41:33.003Z,8.28
2022-10-10T04:43:59.512Z,7.81
2022-10-10T04:46:26.217Z,7.81
2022-10-10T04:48:52.887Z,7.90
2022-10-10T04:51:19.390Z,7.99
2022-10-10T04:53:50.282Z,7.88
2022-10-10T04:56:17.130Z,8.18
2022-10-10T04:58:43.600Z,8.06
2022-10-10T05:01:10.147Z,7.90
2022-10-10T05:03:36.661Z,7.77
2022-10-10T05:06:03.315Z,7.73
2022-10-10T05:08:30.437Z,8.07
2022-10-10T05:10:56.938Z,7.99
2022-10-10T05:13:23.419Z,7.84
2022-10-10T05:15:52.191Z,7.97
2022-10-10T05:18:19.775Z,7.75
2022-10-10T05:20:47.718Z,7.73
2022-10-10T05:23:15.370Z,7.68
2022-10-10T05:25:49.239Z,7.45
2022-10-10T05:28:16.040Z,7.46
2022-10-10T05:30:42.922Z,7.61
2022-10-10T05:33:09.559Z,7.65
2022-10-10T05:35:36.163Z,7.71
2022-10-10T05:38:03.212Z,8.03
2022-10-10T05:40:29.723Z,8.12
2022-10-10T05:42:56.270Z,7.97
2022-10-10T05:45:22.735Z,7.97
2022-10-10T05:47:49.229Z,7.77
2022-10-10T05:50:29.880Z,7.84
2022-10-10T05:52:56.638Z,7.75
2022-10-10T05:55:23.309Z,7.76
2022-10-10T05:57:49.853Z,7.87
2022-10-10T06:00:16.500Z,8.06
2022-10-10T06:02:43.211Z,8.12
2022-10-10T06:05:10.077Z,8.02
2022-10-10T06:07:59.849Z,7.99
2022-10-10T06:10:23.595Z,7.76
2022-10-10T06:12:50.403Z,7.78
2022-10-10T06:15:17.205Z,8.05
2022-10-10T06:17:43.674Z,8.03
2022-10-10T06:20:10.191Z,8.25
2022-10-10T06:22:36.713Z,8.56
2022-10-10T06:25:03.337Z,8.39
2022-10-10T06:27:29.822Z,8.53
2022-10-10T06:29:56.387Z,8.64
2022-10-10T06:32:22.856Z,8.66
2022-10-10T06:34:49.375Z,9.72
2022-10-10T06:37:15.918Z,10.42
2022-10-10T06:39:42.480Z,10.04
2022-10-10T06:42:09.089Z,10.68
2022-10-10T06:44:35.585Z,11.33
2022-10-10T06:47:02.092Z,11.35
2022-10-10T06:49:29.346Z,11.73
2022-10-10T06:51:55.887Z,11.33
2022-10-10T06:54:22.365Z,11.57
2022-10-10T06:56:48.835Z,12.42
2022-10-10T06:59:15.325Z,12.66
2022-10-10T07:01:41.895Z,12.85
2022-10-10T07:04:09.781Z,13.27
2022-10-10T07:06:36.555Z,13.21
2022-10-10T07:09:03.520Z,12.99
2022-10-10T07:11:30.276Z,13.19
2022-10-10T07:13:56.815Z,12.91
2022-10-10T07:16:23.714Z,12.24
2022-10-10T07:18:50.473Z,11.92
2022-10-10T07:21:17.013Z,11.96
2022-10-10T07:23:43.647Z,11.95
2022-10-10T07:26:16.379Z,12.05
2022-10-10T07:28:42.914Z,12.15
2022-10-10T07:31:11.179Z,12.38
2022-10-10T07:33:49.672Z,13.30
2022-10-10T07:36:16.888Z,13.56
2022-10-10T07:38:43.404Z,13.32
2022-10-10T07:41:13.015Z,13.79
2022-10-10T07:43:39.805Z,13.18
2022-10-10T07:46:09.732Z,13.18
2022-10-10T07:48:38.698Z,13.24
2022-10-10T07:51:09.154Z,13.17
2022-10-10T07:53:36.142Z,12.86
2022-10-10T07:56:07.803Z,13.89
2022-10-10T07:58:35.359Z,14.02
2022-10-10T08:01:03.739Z,14.48
2022-10-10T08:03:30.420Z,13.57
2022-10-10T08:05:57.039Z,13.04
2022-10-10T08:08:23.596Z,13.27
2022-10-10T08:10:50.129Z,13.38
2022-10-10T08:13:16.582Z,14.13
2022-10-10T08:15:43.141Z,13.78
2022-10-10T08:18:09.644Z,15.73
2022-10-10T08:20:36.186Z,16.64
2022-10-10T08:23:02.727Z,16.24
2022-10-10T08:25:29.313Z,16.24
2022-10-10T08:27:55.862Z,16.34
2022-10-10T08:30:22.366Z,16.79
2022-10-10T08:32:49.089Z,17.31
2022-10-10T08:35:15.903Z,16.58
2022-10-10T08:37:42.427Z,17.69
2022-10-10T08:40:14.615Z,17.05
2022-10-10T08:42:51.776Z,17.87
2022-10-10T08:45:27.635Z,17.79
2022-10-10T08:47:58.626Z,19.01
2022-10-10T08:50:37.093Z,19.26
2022-10-10T08:53:09.371Z,19.13
2022-10-10T08:55:38.541Z,17.78
2022-10-10T08:58:33.213Z,19.82
2022-10-10T09:01:08.140Z,21.17
2022-10-10T09:03:45.274Z,20.10
2022-10-10T09:06:30.223Z,19.27
2022-10-10T09:09:23.497Z,18.96
2022-10-10T09:12:11.509Z,18.49
2022-10-10T09:15:02.383Z,21.35
2022-10-10T09:17:58.966Z,22.73
2022-10-10T09:20:37.622Z,20.90
2022-10-10T09:23:17.996Z,20.68
2022-10-10T09:25:52.407Z,20.16
2022-10-10T09:28:35.622Z,19.77
2022-10-10T09:31:05.550Z,20.96
2022-10-10T09:33:34.698Z,21.36
2022-10-10T09:36:04.690Z,22.20
2022-10-10T09:38:41.145Z,23.21
2022-10-10T09:41:35.547Z,23.17
2022-10-10T09:44:07.395Z,23.31
2022-10-10T09:46:33.867Z,21.47
2022-10-10T09:49:00.483Z,21.19
2022-10-10T09:51:28.847Z,22.09
2022-10-10T09:53:55.317Z,22.58
2022-10-10T09:56:27.695Z,22.68
2022-10-10T09:58:55.704Z,23.24
2022-10-10T10:01:28.724Z,24.67
2022-10-10T10:04:28.436Z,24.18
2022-10-10T10:07:22.273Z,24.33
2022-10-10T10:09:50.815Z,22.13
2022-10-10T10:12:24.534Z,20.42
2022-10-10T10:14:57.155Z,21.01
2022-10-10T10:17:24.586Z,21.98
2022-10-10T10:19:51.361Z,22.52
2022-10-10T10:22:31.511Z,24.03
2022-10-10T10:24:59.641Z,26.07
2022-10-10T10:27:28.723Z,23.87
2022-10-10T10:29:57.963Z,24.84
2022-10-10T10:32:27.312Z,21.19
2022-10-10T10:34:59.191Z,23.74
2022-10-10T10:37:36.674Z,24.79
2022-10-10T10:40:21.484Z,23.89
2022-10-10T10:43:04.140Z,23.22
2022-10-10T10:45:41.264Z,22.35
2022-10-10T10:48:10.796Z,21.33
2022-10-10T10:50:51.177Z,22.23
2022-10-10T10:53:55.443Z,24.12
2022-10-10T10:56:43.552Z,24.31
2022-10-10T10:59:36.335Z,25.04
2022-10-10T11:02:08.860Z,25.85
2022-10-10T11:05:23.227Z,25.48
2022-10-10T11:07:51.645Z,24.90
2022-10-10T11:10:23.653Z,23.50
2022-10-10T11:13:11.947Z,24.89
2022-10-10T11:16:05.882Z,25.83
2022-10-10T11:18:46.048Z,25.61
2022-10-10T11:21:20.606Z,24.78
2022-10-10T11:23:53.626Z,26.12
2022-10-10T11:26:26.279Z,26.18
2022-10-10T11:29:04.389Z,26.56
2022-10-10T11:31:39.776Z,25.38
2022-10-10T11:34:15.113Z,26.43
2022-10-10T11:36:43.829Z,26.01
2022-10-10T11:39:24.607Z,26.80
2022-10-10T11:41:57.729Z,27.00
2022-10-10T11:44:31.225Z,26.39
2022-10-10T11:47:16.620Z,25.68
2022-10-10T11:49:53.629Z,26.49
2022-10-10T11:52:34.876Z,26.84
2022-10-10T11:55:28.653Z,26.91
2022-10-10T11:58:07.349Z,27.89
2022-10-10T12:00:37.999Z,27.86
2022-10-10T12:03:06.966Z,26.53
2022-10-10T12:05:38.504Z,26.90
2022-10-10T12:08:17.871Z,26.69
2022-10-10T12:10:51.099Z,26.74
2022-10-10T12:13:27.030Z,26.64
2022-10-10T12:15:56.616Z,26.03
2022-10-10T12:18:59.815Z,27.65
2022-10-10T12:21:28.115Z,27.83
2022-10-10T12:24:11.478Z,26.26
2022-10-10T12:26:53.183Z,26.12
2022-10-10T12:29:46.813Z,25.71
2022-10-10T12:32:19.380Z,26.40
2022-10-10T12:34:48.952Z,25.92
2022-10-10T12:37:27.664Z,25.84
2022-10-10T12:40:06.246Z,25.21
2022-10-10T12:42:47.750Z,25.25
2022-10-10T12:45:29.551Z,25.87
2022-10-10T12:48:18.428Z,26.70
2022-10-10T12:50:55.734Z,26.75
2022-10-10T12:53:25.128Z,26.57
2022-10-10T12:55:58.359Z,27.52
2022-10-10T12:58:40.880Z,25.40
2022-10-10T13:01:26.387Z,25.49
2022-10-10T13:03:54.451Z,26.62
2022-10-10T13:06:37.222Z,27.24
2022-10-10T13:09:10.279Z,27.48
2022-10-10T13:12:01.004Z,27.37
2022-10-10T13:14:38.561Z,26.86
2022-10-10T13:17:31.779Z,26.86
2022-10-10T13:20:00.693Z,26.97
2022-10-10T13:22:29.643Z,26.89
2022-10-10T13:24:56.487Z,26.28
2022-10-10T13:27:31.295Z,25.33
2022-10-10T13:29:59.036Z,25.94
2022-10-10T13:32:28.929Z,24.91
2022-10-10T13:34:59.388Z,26.14
2022-10-10T13:37:26.430Z,25.50
2022-10-10T13:39:53.926Z,24.73
2022-10-10T13:42:38.774Z,24.78
2022-10-10T13:45:34.836Z,24.94
2022-10-10T13:48:01.283Z,25.44
2022-10-10T13:50:32.419Z,25.55
2022-10-10T13:53:27.217Z,25.39
2022-10-10T13:56:06.958Z,24.90
2022-10-10T13:58:47.457Z,25.59
2022-10-10T14:01:38.053Z,25.15
2022-10-10T14:04:13.436Z,25.53
2022-10-10T14:06:42.320Z,25.36
2022-10-10T14:09:18.237Z,25.95
2022-10-10T14:11:44.868Z,26.33
2022-10-10T14:14:34.081Z,25.79
2022-10-10T14:17:02.244Z,25.96
2022-10-10T14:19:29.767Z,25.17
2022-10-10T14:21:56.395Z,23.98
2022-10-10T14:24:23.825Z,23.64
2022-10-10T14:26:50.481Z,23.33
2022-10-10T14:29:18.155Z,24.17
2022-10-10T14:31:46.072Z,23.19
2022-10-10T14:34:13.730Z,23.54
2022-10-10T14:36:46.477Z,23.22
2022-10-10T14:39:17.418Z,22.95
2022-10-10T14:41:44.620Z,22.49
2022-10-10T14:44:11.975Z,22.08
2022-10-10T14:46:40.015Z,22.42
2022-10-10T14:49:10.958Z,22.38
2022-10-10T14:51:39.542Z,21.86
2022-10-10T14:54:10.904Z,21.53
2022-10-10T14:57:06.967Z,22.12
2022-10-10T14:59:46.170Z,21.81
2022-10-10T15:02:15.568Z,22.00
2022-10-10T15:04:42.123Z,21.71
2022-10-10T15:07:14.023Z,21.98
2022-10-10T15:09:48.221Z,21.86
2022-10-10T15:12:23.772Z,21.71
2022-10-10T15:14:50.279Z,22.08
2022-10-10T15:17:16.879Z,22.34
2022-10-10T15:19:43.382Z,21.70
2022-10-10T15:22:09.868Z,21.80
2022-10-10T15:24:36.427Z,21.53
2022-10-10T15:27:03.854Z,21.88
2022-10-10T15:29:30.483Z,21.83
2022-10-10T15:31:56.981Z,21.64
2022-10-10T15:34:23.612Z,21.26
2022-10-10T15:36:50.188Z,20.98
2022-10-10T15:39:16.743Z,21.02
2022-10-10T15:41:43.290Z,21.10
2022-10-10T15:44:18.216Z,21.39
2022-10-10T15:46:45.287Z,20.96
2022-10-10T15:49:13.234Z,20.86
2022-10-10T15:51:45.072Z,21.21
2022-10-10T15:54:12.404Z,21.62
2022-10-10T15:56:39.473Z,21.74
2022-10-10T15:59:06.270Z,21.13
2022-10-10T16:01:32.745Z,21.13
2022-10-10T16:03:59.681Z,21.05
2022-10-10T16:06:26.682Z,20.99
2022-10-10T16:09:10.013Z,21.04
2022-10-10T16:11:40.229Z,20.71
2022-10-10T16:14:06.743Z,20.63
2022-10-10T16:16:33.310Z,20.56
2022-10-10T16:19:00.123Z,20.47
2022-10-10T16:21:27.601Z,20.19
2022-10-10T16:23:57.820Z,20.04
2022-10-10T16:26:28.972Z,20.08
2022-10-10T16:28:56.424Z,19.89
2022-10-10T16:31:23.094Z,19.83
2022-10-10T16:33:49.689Z,19.95
2022-10-10T16:36:22.587Z,19.85
2022-10-10T16:38:50.232Z,19.56
2022-10-10T16:41:42.569Z,19.48
2022-10-10T16:44:05.081Z,18.81
2022-10-10T16:46:31.575Z,19.00
2022-10-10T16:48:59.523Z,19.15
2022-10-10T16:51:28.342Z,19.30
2022-10-10T16:53:56.281Z,19.32
2022-10-10T16:56:22.833Z,19.14
2022-10-10T16:58:50.688Z,18.96
2022-10-10T17:01:20.539Z,19.04
2022-10-10T17:03:48.436Z,18.92
2022-10-10T17:06:19.094Z,18.60
2022-10-10T17:08:47.609Z,18.35
2022-10-10T17:11:17.039Z,18.49
2022-10-10T17:13:44.220Z,18.62
2022-10-10T17:16:53.393Z,19.03
2022-10-10T17:19:00.794Z,19.04
2022-10-10T17:21:27.272Z,18.98
2022-10-10T17:23:54.783Z,18.24
2022-10-10T17:26:26.199Z,18.25
2022-10-10T17:28:57.529Z,18.23
2022-10-10T17:31:25.426Z,18.26
2022-10-10T17:33:54.223Z,18.44
2022-10-10T17:36:24.728Z,18.58
2022-10-10T17:38:52.445Z,18.52
2022-10-10T17:41:20.469Z,18.79
2022-10-10T17:43:46.998Z,18.40
2022-10-10T17:46:33.932Z,18.49
2022-10-10T17:49:03.215Z,18.64
2022-10-10T17:51:29.701Z,18.46
2022-10-10T17:53:59.401Z,18.35
2022-10-10T17:56:26.030Z,18.43
2022-10-10T17:58:52.582Z,17.84
2022-10-10T18:01:20.425Z,18.09
2022-10-10T18:03:48.279Z,17.56
2022-10-10T18:06:17.966Z,17.59
2022-10-10T18:08:47.103Z,17.70
2022-10-10T18:11:19.782Z,17.47
2022-10-10T18:13:46.494Z,17.22
2022-10-10T18:16:15.543Z,17.32
2022-10-10T18:18:48.235Z,17.22
2022-10-10T18:21:17.623Z,17.57
2022-10-10T18:23:44.134Z,17.64
2022-10-10T18:26:22.091Z,17.65
2022-10-10T18:28:50.040Z,17.84
2022-10-10T18:31:19.490Z,17.71
2022-10-10T18:33:46.393Z,17.88
2022-10-10T18:36:15.615Z,17.74
2022-10-10T18:38:42.187Z,17.85
2022-10-10T18:41:16.214Z,18.10
2022-10-10T18:43:43.441Z,17.87
2022-10-10T18:46:12.495Z,18.34
2022-10-10T18:48:39.517Z,18.61
2022-10-10T18:51:13.016Z,18.58
2022-10-10T18:53:41.735Z,18.67
2022-10-10T18:56:09.323Z,18.65
2022-10-10T18:58:36.578Z,18.65
2022-10-10T19:01:08.616Z,18.09
2022-10-10T19:03:36.858Z,17.71
2022-10-10T19:06:05.306Z,17.66
2022-10-10T19:08:32.066Z,17.64
2022-10-10T19:10:58.877Z,17.75
2022-10-10T19:13:26.023Z,17.52
2022-10-10T19:15:53.029Z,17.48
2022-10-10T19:18:21.871Z,17.23
2022-10-10T19:20:48.676Z,17.18
2022-10-10T19:23:15.573Z,17.27
2022-10-10T19:25:43.664Z,17.58
2022-10-10T19:28:10.674Z,17.59
2022-10-10T19:30:39.490Z,17.57
2022-10-10T19:33:06.174Z,17.83
2022-10-10T19:35:41.569Z,17.60
2022-10-10T19:38:10.164Z,17.23
2022-10-10T19:40:43.850Z,17.25
2022-10-10T19:43:10.356Z,17.10
2022-10-10T19:45:41.302Z,17.07
2022-10-10T19:48:07.917Z,17.01
2022-10-10T19:50:38.306Z,16.89
2022-10-10T19:53:05.322Z,17.03
2022-10-10T19:55:31.852Z,17.03
2022-10-10T19:57:58.350Z,16.84
2022-10-10T20:00:25.261Z,16.76
2022-10-10T20:02:51.752Z,16.86
2022-10-10T20:05:18.281Z,16.78
2022-10-10T20:07:44.855Z,16.84
2022-10-10T20:10:12.665Z,16.88
2022-10-10T20:12:39.233Z,16.81
2022-10-10T20:15:06.160Z,17.09
2022-10-10T20:17:32.711Z,17.51
2022-10-10T20:19:59.277Z,17.18
2022-10-10T20:22:25.880Z,16.84
2022-10-10T20:24:52.383Z,17.04
2022-10-10T20:27:18.870Z,17.11
2022-10-10T20:29:45.367Z,16.85
2022-10-10T20:32:11.823Z,17.23
2022-10-10T20:34:39.489Z,16.83
2022-10-10T20:37:06.042Z,16.72
2022-10-10T20:39:32.559Z,16.52
2022-10-10T20:41:59.176Z,16.85
2022-10-10T20:44:25.771Z,17.27
2022-10-10T20:46:52.258Z,16.88
2022-10-10T20:49:20.979Z,16.68
2022-10-10T20:51:49.459Z,16.99
2022-10-10T20:54:18.638Z,17.20
2022-10-10T20:56:45.673Z,17.02
2022-10-10T20:59:12.925Z,16.40
2022-10-10T21:01:39.613Z,16.48
2022-10-10T21:04:10.239Z,16.67
2022-10-10T21:06:37.877Z,16.28
2022-10-10T21:09:07.334Z,16.64
2022-10-10T21:11:34.582Z,16.40
2022-10-10T21:14:02.175Z,16.27
2022-10-10T21:16:35.284Z,16.26
2022-10-10T21:19:03.076Z,16.47
2022-10-10T21:21:32.520Z,16.44
2022-10-10T21:23:59.621Z,16.21
2022-10-10T21:26:27.698Z,16.26
2022-10-10T21:28:55.201Z,16.11
2022-10-10T21:31:24.608Z,16.21
2022-10-10T21:33:51.711Z,16.13
2022-10-10T21:36:19.594Z,16.23
2022-10-10T21:38:46.353Z,16.28
2022-10-10T21:41:18.888Z,16.05
2022-10-10T21:43:47.603Z,15.89
2022-10-10T21:46:17.064Z,16.26
2022-10-10T21:48:43.981Z,16.23
2022-10-10T21:51:10.880Z,16.25
2022-10-10T21:53:37.692Z,16.09
2022-10-10T21:56:07.344Z,15.96
2022-10-10T21:58:36.635Z,15.99
2022-10-10T22:01:19.454Z,16.03
2022-10-10T22:03:47.966Z,16.21
2022-10-10T22:06:16.893Z,15.93
2022-10-10T22:08:43.971Z,15.79
2022-10-10T22:11:16.539Z,15.75
2022-10-10T22:13:43.562Z,15.73
2022-10-10T22:16:10.367Z,15.82
2022-10-10T22:18:37.968Z,15.74
2022-10-10T22:21:07.801Z,15.66
2022-10-10T22:23:34.532Z,15.76
2022-10-10T22:26:01.344Z,15.72
2022-10-10T22:28:28.407Z,15.63
2022-10-10T22:30:54.919Z,15.46
2022-10-10T22:33:21.406Z,15.85
2022-10-10T22:35:48.000Z,15.88
2022-10-10T22:38:14.501Z,16.15
2022-10-10T22:40:40.994Z,16.34
2022-10-10T22:43:07.533Z,15.77
2022-10-10T22:45:34.301Z,15.77
2022-10-10T22:48:00.855Z,15.74
2022-10-10T22:50:27.609Z,15.63
2022-10-10T22:52:54.134Z,15.55
2022-10-10T22:55:20.605Z,15.58
2022-10-10T22:57:47.160Z,15.57
2022-10-10T23:00:14.325Z,15.57
2022-10-10T23:02:40.858Z,15.66
2022-10-10T23:05:08.160Z,15.87
2022-10-10T23:07:34.750Z,16.12
2022-10-10T23:10:01.343Z,16.44
2022-10-10T23:12:28.538Z,16.19
2022-10-10T23:14:55.012Z,16.25
2022-10-10T23:17:21.533Z,15.91
2022-10-10T23:19:48.032Z,15.95
2022-10-10T23:22:14.684Z,16.08
2022-10-10T23:24:41.986Z,15.55
2022-10-10T23:27:08.493Z,15.53
2022-10-10T23:29:35.024Z,15.35
2022-10-10T23:32:01.503Z,15.48
2022-10-10T23:34:28.027Z,15.73
2022-10-10T23:36:54.569Z,15.65
2022-10-10T23:39:21.115Z,15.35
2022-10-10T23:41:47.844Z,15.03
2022-10-10T23:44:14.326Z,14.73
2022-10-10T23:46:40.793Z,14.70
2022-10-10T23:49:07.398Z,14.85
2022-10-10T23:51:33.960Z,14.89
2022-10-10T23:54:00.466Z,14.57
2022-10-10T23:56:26.959Z,14.89
2022-10-10T23:58:53.842Z,14.62
